Natsushima — 7JDU — position and weather

sailwx.info

Track history (hours):
 
Tides and Currents Weather Stations Pressure Air Temp Water Temp Dewpoint Dewpoint Depression Visibility Wind Speed Wind Dir Waves Ship Positions

Oceanographic research ship Natsushima (Japan)

Detailed information on ship capabilities available from University of Delaware's Ocean Information Center.

Last reported at 2018-Jul-02 10:05 UTC. Time now 2018-Dec-13 00:23 UTC.
Position N 34°28' E 134°30'.
Warning: this ship's position is months out of date.

Length 67.4 m; beam 13 m.

Type: Other ship. MMSI: 431129000.

Date/timePositionNaut miles runAvg speedWind from/ knotsBaromVisibWave heightAir tempDewpointWater temp
2018-Jul-02 10:05N 34°28' E 134°30'110.7
2018-Jul-02 10:00N 34°28' E 134°31'810.2
2018-Jul-02 09:14N 34°31' E 134°40'3 9.8
2018-Jul-02 08:57N 34°32' E 134°43'5 9.6
2018-Jul-02 08:27N 34°34' E 134°48'4 8.7
2018-Jul-02 08:00N 34°35' E 134°53'5 8.1
2018-Jul-02 07:19N 34°38' E 134°59'2 6.9
2018-Jul-02 07:00N 34°37' E 135°01'3 7.0
2018-Jul-02 06:30N 34°35' E 135°05'5 9.2
2018-Jul-02 06:00N 34°31' E 135°07'510.4
2018-Jul-02 05:30N 34°26' E 135°04'510.4
2018-Jul-02 05:00N 34°22' E 135°02'510.3
2018-Jul-02 04:30N 34°17' E 134°59'510.0
2018-Jul-02 04:00N 34°12' E 134°59'611.2
2018-Jul-02 03:30N 34°06' E 134°59'611.4
2018-Jul-02 03:00N 34°01' E 134°59'711.2
2018-Jul-02 02:21N 33°53' E 134°60'410.5
2018-Jul-02 02:00N 33°50' E 135°01'  
2018-Jun-22 10:16N 35°06' E 139°44'  
Track history (hours):
 
Tides and Currents Weather Stations Pressure Air Temp Water Temp Dewpoint Dewpoint Depression Visibility Wind Speed Wind Dir Waves Ship Positions

Oceanographic research ship Natsushima (Japan)

Detailed information on ship capabilities available from University of Delaware's Ocean Information Center.

Last reported at 2018-Jul-02 10:05 UTC. Time now 2018-Dec-13 00:23 UTC.
Position N 34°28' E 134°30'.
Warning: this ship's position is months out of date.

Length 67.4 m; beam 13 m.

Type: Other ship. MMSI: 431129000.

Date/timePositionNaut miles runAvg speedWind from/ knotsBaromVisibWave heightAir tempDewpointWater temp
2018-Jul-02 10:05N 34°28' E 134°30'110.7
2018-Jul-02 10:00N 34°28' E 134°31'810.2
2018-Jul-02 09:14N 34°31' E 134°40'3 9.8
2018-Jul-02 08:57N 34°32' E 134°43'5 9.6
2018-Jul-02 08:27N 34°34' E 134°48'4 8.7
2018-Jul-02 08:00N 34°35' E 134°53'5 8.1
2018-Jul-02 07:19N 34°38' E 134°59'2 6.9
2018-Jul-02 07:00N 34°37' E 135°01'3 7.0
2018-Jul-02 06:30N 34°35' E 135°05'5 9.2
2018-Jul-02 06:00N 34°31' E 135°07'510.4
2018-Jul-02 05:30N 34°26' E 135°04'510.4
2018-Jul-02 05:00N 34°22' E 135°02'510.3
2018-Jul-02 04:30N 34°17' E 134°59'510.0
2018-Jul-02 04:00N 34°12' E 134°59'611.2
2018-Jul-02 03:30N 34°06' E 134°59'611.4
2018-Jul-02 03:00N 34°01' E 134°59'711.2
2018-Jul-02 02:21N 33°53' E 134°60'410.5
2018-Jul-02 02:00N 33°50' E 135°01'  
2018-Jun-22 10:16N 35°06' E 139°44'  

Dump ship's entire track history